Time;durP1;ratioP1;P1;durP2;ratioP2;P2;SDS_P1;SDS_P2;PMS_P1;PMS_P2;Temp;Humidity;BMP_temperature;BMP_pressure;BME280_temperature;BME280_humidity;BME280_pressure;Samples;Min_cycle;Max_cycle;Signal;HPM_P1;HPM_P2
2023/07/03 00:00:26;;;;;;;5.93;2.30;;;12.20;99.90;11.60;99401;;;;583116;245;24106;-75
2023/07/03 00:02:54;;;;;;;5.37;2.97;;;12.20;99.90;11.70;99401;;;;574084;246;24133;-75
2023/07/03 00:05:25;;;;;;;5.40;2.47;;;12.30;99.90;11.70;99401;;;;574132;246;24086;-75
2023/07/03 00:07:53;;;;;;;7.10;2.10;;;12.30;99.90;11.70;99403;;;;574110;246;24100;-76
2023/07/03 00:10:21;;;;;;;2.93;2.17;;;12.40;99.90;11.80;99401;;;;579173;246;24088;-75
2023/07/03 00:12:49;;;;;;;7.87;2.20;;;12.40;99.90;11.80;99402;;;;572471;246;24152;-73
2023/07/03 00:15:14;;;;;;;6.50;2.00;;;12.50;99.90;11.90;99404;;;;573446;246;26404;-76
2023/07/03 00:17:46;;;;;;;2.60;2.40;;;12.50;99.90;11.90;99398;;;;573614;246;24122;-75
2023/07/03 00:20:16;;;;;;;2.83;2.23;;;12.50;99.90;11.90;99400;;;;573265;246;24097;-73
2023/07/03 00:22:47;;;;;;;4.13;2.20;;;12.50;99.90;11.90;99405;;;;571985;246;24106;-73
2023/07/03 00:25:12;;;;;;;5.47;2.50;;;12.50;99.90;11.90;99409;;;;582118;246;24094;-75
2023/07/03 00:27:40;;;;;;;8.07;2.70;;;12.50;99.90;11.90;99406;;;;573775;246;24086;-75
2023/07/03 00:30:10;;;;;;;4.20;2.10;;;12.50;99.90;11.80;99405;;;;573523;246;24195;-76
2023/07/03 00:32:40;;;;;;;2.37;2.07;;;12.40;99.90;11.80;99415;;;;573150;246;24161;-74
2023/07/03 00:35:04;;;;;;;3.57;2.33;;;12.40;99.90;11.70;99409;;;;573267;246;24147;-79
2023/07/03 00:37:32;;;;;;;3.03;1.77;;;12.40;99.90;11.70;99410;;;;571647;246;24136;-76
2023/07/03 00:40:00;;;;;;;8.43;2.63;;;12.40;99.90;11.60;99404;;;;573805;246;24088;-76
2023/07/03 00:42:29;;;;;;;8.20;2.87;;;12.20;99.90;11.60;99405;;;;573774;246;24078;-75
2023/07/03 00:44:57;;;;;;;4.33;2.50;;;12.20;99.90;11.50;99411;;;;582389;246;24095;-79
2023/07/03 00:47:25;;;;;;;5.97;2.80;;;12.20;99.90;11.50;99410;;;;573448;246;24099;-79
2023/07/03 00:49:52;;;;;;;5.63;2.00;;;12.10;99.90;11.40;99417;;;;571756;246;24164;-77
2023/07/03 00:52:24;;;;;;;2.57;2.37;;;12.10;99.90;11.40;99415;;;;573328;246;24104;-78
2023/07/03 00:54:48;;;;;;;10.63;2.87;;;12.10;99.90;11.40;99408;;;;571791;246;24131;-79
2023/07/03 00:57:16;;;;;;;4.83;2.30;;;12.10;99.90;11.50;99411;;;;573426;246;24152;-76
2023/07/03 00:59:48;;;;;;;6.63;2.33;;;12.20;99.90;11.60;99410;;;;582602;246;24084;-78
2023/07/03 01:02:26;;;;;;;3.83;1.97;;;12.30;99.90;11.70;99416;;;;573377;246;24108;-78
2023/07/03 01:04:59;;;;;;;6.80;2.43;;;12.30;99.90;11.70;99416;;;;573306;246;26286;-79
2023/07/03 01:07:27;;;;;;;6.67;2.80;;;12.40;99.90;11.70;99413;;;;574430;245;24100;-79
2023/07/03 01:10:23;;;;;;;7.83;2.97;;;12.30;99.90;11.80;99411;;;;580396;244;24120;-79
2023/07/03 01:12:50;;;;;;;3.80;2.40;;;12.40;99.90;11.80;99413;;;;572901;246;24072;-77
2023/07/03 01:15:18;;;;;;;6.17;2.37;;;12.50;99.90;11.90;99412;;;;578213;246;24093;-80
2023/07/03 01:17:50;;;;;;;3.23;2.17;;;12.60;99.90;12.00;99417;;;;578366;246;24127;-81
2023/07/03 01:20:14;;;;;;;6.53;2.20;;;12.60;99.90;12.10;99416;;;;573826;246;24165;-78
2023/07/03 01:22:54;;;;;;;5.27;3.10;;;12.70;99.90;12.10;99423;;;;578410;246;24113;-76
2023/07/03 01:25:25;;;;;;;4.70;2.43;;;12.80;99.90;12.20;99407;;;;573915;246;24100;-75
2023/07/03 01:27:50;;;;;;;8.70;2.57;;;12.80;99.90;12.30;99412;;;;573898;246;24078;-78
2023/07/03 01:30:18;;;;;;;7.77;2.67;;;13.00;99.90;12.30;99416;;;;572313;246;24081;-77
2023/07/03 01:32:46;;;;;;;3.33;2.60;;;13.00;99.90;12.40;99413;;;;578731;246;24138;-76
2023/07/03 01:35:14;;;;;;;7.57;2.40;;;13.00;99.90;12.40;99410;;;;578528;246;24107;-81
2023/07/03 01:37:46;;;;;;;7.43;2.70;;;13.00;99.90;12.40;99402;;;;573916;246;24173;-78
2023/07/03 01:40:10;;;;;;;5.50;2.47;;;13.10;99.90;12.50;99404;;;;577966;246;24238;-79
2023/07/03 01:42:40;;;;;;;4.87;2.50;;;13.10;99.90;12.50;99389;;;;572468;246;24193;-78
2023/07/03 01:45:10;;;;;;;5.53;2.80;;;13.10;99.90;12.50;99395;;;;581052;245;25211;-77
2023/07/03 01:47:34;;;;;;;7.77;2.70;;;13.10;99.90;12.40;99398;;;;571577;246;24117;-80
2023/07/03 01:50:05;;;;;;;7.13;2.67;;;13.10;99.90;12.40;99397;;;;572254;246;24121;-77
2023/07/03 01:52:31;;;;;;;4.33;2.70;;;13.00;99.90;12.40;99395;;;;574516;246;24153;-78
2023/07/03 01:55:13;;;;;;;3.73;2.57;;;13.00;99.90;12.40;99392;;;;578909;246;24092;-76
2023/07/03 01:57:56;;;;;;;5.37;2.60;;;13.00;99.90;12.40;99383;;;;583737;246;24153;-75
2023/07/03 02:00:27;;;;;;;3.60;2.43;;;13.00;99.90;12.30;99391;;;;572074;246;24179;-80
2023/07/03 02:02:56;;;;;;;4.20;2.37;;;12.90;99.90;12.10;99389;;;;582183;246;24097;-81
2023/07/03 02:05:23;;;;;;;4.07;2.53;;;12.80;99.90;12.10;99393;;;;573476;246;24078;-76
2023/07/03 02:07:51;;;;;;;7.23;3.20;;;12.70;99.90;12.00;99385;;;;577874;246;24081;-79
2023/07/03 02:10:19;;;;;;;7.03;3.30;;;12.70;99.90;11.90;99384;;;;578523;246;24088;-75
2023/07/03 02:12:49;;;;;;;9.33;3.13;;;12.50;99.90;11.80;99388;;;;572777;246;27377;-76
2023/07/03 02:15:14;;;;;;;12.03;3.17;;;12.50;99.90;11.70;99380;;;;583390;246;24102;-76
2023/07/03 02:17:45;;;;;;;6.27;3.13;;;12.40;99.90;11.70;99377;;;;573519;246;24158;-75
2023/07/03 02:20:17;;;;;;;5.63;2.57;;;12.40;99.90;11.60;99376;;;;575604;246;24147;-74
2023/07/03 02:22:45;;;;;;;6.63;3.90;;;12.20;99.90;11.50;99376;;;;573090;246;24092;-81
2023/07/03 02:25:16;;;;;;;9.47;3.13;;;12.20;99.90;11.50;99380;;;;583444;246;24148;-80
2023/07/03 02:27:44;;;;;;;7.60;3.37;;;12.20;99.90;11.50;99382;;;;582956;246;24174;-79
2023/07/03 02:30:12;;;;;;;7.37;2.93;;;12.10;99.90;11.40;99379;;;;579288;246;24095;-77
2023/07/03 02:32:40;;;;;;;4.73;3.23;;;12.10;99.90;11.40;99386;;;;582979;243;24184;-78
2023/07/03 02:35:05;;;;;;;9.40;3.43;;;12.10;99.90;11.40;99386;;;;572357;246;24077;-80
2023/07/03 02:37:33;;;;;;;10.80;3.53;;;12.10;99.90;11.40;99379;;;;572522;246;24141;-76
2023/07/03 02:40:01;;;;;;;6.40;3.73;;;12.00;99.90;11.40;99375;;;;574001;246;24083;-75
2023/07/03 02:42:28;;;;;;;4.80;3.40;;;12.10;99.90;11.50;99379;;;;573697;246;24098;-76
2023/07/03 02:44:59;;;;;;;12.53;3.33;;;12.10;99.90;11.50;99379;;;;578836;246;24107;-74
2023/07/03 02:47:26;;;;;;;4.73;2.63;;;12.10;99.90;11.50;99377;;;;573724;246;24119;-74
2023/07/03 02:49:57;;;;;;;4.30;2.73;;;12.10;99.90;11.40;99375;;;;574071;246;24107;-80
2023/07/03 02:52:22;;;;;;;5.07;3.03;;;12.10;99.90;11.50;99370;;;;572377;246;24114;-80
2023/07/03 02:54:50;;;;;;;4.80;3.07;;;12.10;99.90;11.50;99370;;;;573986;246;24108;-78
2023/07/03 02:57:17;;;;;;;4.97;3.03;;;12.10;99.90;11.50;99379;;;;573724;246;24140;-81
2023/07/03 02:59:45;;;;;;;10.77;3.70;;;12.20;99.90;11.60;99381;;;;573538;246;24109;-77
2023/07/03 03:02:13;;;;;;;5.80;3.20;;;12.20;99.90;11.60;99382;;;;573460;246;24099;-74
2023/07/03 03:04:41;;;;;;;10.60;3.50;;;12.30;99.90;11.70;99380;;;;573360;246;24102;-78
2023/07/03 03:07:09;;;;;;;5.33;3.20;;;12.30;99.90;11.80;99387;;;;573428;246;24113;-76
2023/07/03 03:09:37;;;;;;;7.23;3.30;;;12.40;99.90;11.80;99376;;;;573330;246;24105;-79
2023/07/03 03:12:05;;;;;;;3.87;3.23;;;12.40;99.90;11.90;99372;;;;573776;246;24136;-78
2023/07/03 03:14:36;;;;;;;5.73;3.00;;;12.50;99.90;12.00;99377;;;;572059;246;24081;-79
2023/07/03 03:17:01;;;;;;;7.97;3.00;;;12.60;99.90;12.10;99375;;;;573605;246;24086;-80
2023/07/03 03:19:33;;;;;;;8.80;2.97;;;12.70;99.90;12.40;99372;;;;572092;246;24073;-81
2023/07/03 03:21:57;;;;;;;4.30;2.80;;;12.90;99.90;12.90;99374;;;;581777;246;24182;-78
2023/07/03 03:24:28;;;;;;;5.50;3.87;;;13.40;99.90;13.30;99375;;;;573515;246;24075;-79
2023/07/03 03:26:53;;;;;;;4.10;3.07;;;13.80;99.90;13.70;99375;;;;571403;246;24121;-80
2023/07/03 03:29:20;;;;;;;6.53;2.73;;;14.20;99.90;14.20;99375;;;;572091;246;24185;-80
2023/07/03 03:31:49;;;;;;;6.03;3.03;;;15.10;99.90;14.70;99373;;;;574753;246;24139;-78
2023/07/03 03:34:21;;;;;;;4.73;2.67;;;15.10;99.90;15.20;99371;;;;574457;246;24086;-81
2023/07/03 03:36:45;;;;;;;3.97;2.57;;;15.60;99.90;15.70;99364;;;;583104;245;24136;-80
2023/07/03 03:39:13;;;;;;;6.73;3.30;;;16.10;99.90;16.30;99371;;;;574401;246;24082;-80
2023/07/03 03:41:42;;;;;;;4.00;3.23;;;17.30;99.90;16.90;99374;;;;574397;246;24142;-79
2023/07/03 03:44:09;;;;;;;8.03;3.10;;;17.30;99.90;17.50;99377;;;;574660;246;24086;-81
2023/07/03 03:46:37;;;;;;;11.37;3.10;;;17.90;99.90;18.00;99386;;;;574592;246;24150;-79
2023/07/03 03:49:09;;;;;;;7.33;3.07;;;18.40;99.90;18.60;99378;;;;574418;246;24168;-80
2023/07/03 03:51:33;;;;;;;5.77;3.00;;;19.00;99.90;19.00;99393;;;;573331;246;24118;-82
2023/07/03 03:54:01;;;;;;;5.23;3.53;;;19.50;99.90;19.40;99397;;;;573843;246;23146;-81
2023/07/03 03:56:29;;;;;;;5.80;3.27;;;20.00;99.90;19.90;99397;;;;573646;246;24128;-81
2023/07/03 03:58:57;;;;;;;7.83;3.03;;;20.40;99.90;20.30;99400;;;;573869;246;24144;-79
2023/07/03 04:01:25;;;;;;;5.23;3.30;;;20.90;99.90;20.70;99401;;;;573832;246;23105;-80
2023/07/03 04:03:53;;;;;;;3.37;2.87;;;21.30;99.90;21.10;99398;;;;573743;246;24173;-80
2023/07/03 04:06:21;;;;;;;5.47;2.97;;;21.70;99.90;21.60;99392;;;;574097;246;24127;-80
2023/07/03 04:08:49;;;;;;;4.70;2.67;;;22.10;99.90;22.30;99391;;;;572047;246;24102;-78
2023/07/03 04:11:16;;;;;;;6.93;3.00;;;22.80;99.90;22.70;99399;;;;573709;246;24285;-81
2023/07/03 04:13:44;;;;;;;4.97;3.50;;;23.30;99.90;23.00;99401;;;;573943;246;24075;-81
2023/07/03 04:16:15;;;;;;;4.60;3.37;;;23.60;98.00;23.30;99400;;;;574122;246;23139;-82
2023/07/03 04:18:40;;;;;;;4.27;3.03;;;24.00;97.10;23.80;99402;;;;572374;246;24071;-79
2023/07/03 04:21:08;;;;;;;11.17;3.20;;;24.50;95.80;24.20;99409;;;;579315;246;23110;-83
2023/07/03 04:23:36;;;;;;;5.77;3.60;;;24.90;93.80;24.60;99406;;;;574033;246;24129;-80
2023/07/03 04:26:04;;;;;;;5.37;3.00;;;25.30;92.20;25.00;99407;;;;573885;246;23132;-79
2023/07/03 04:28:32;;;;;;;8.17;3.30;;;25.70;91.00;25.50;99416;;;;573757;246;23091;-77
2023/07/03 04:31:02;;;;;;;6.90;3.00;;;26.90;85.10;26.10;99403;;;;571992;246;23146;-76
2023/07/03 04:33:29;;;;;;;8.50;3.90;;;27.50;81.50;26.80;99407;;;;573414;246;23118;-76
2023/07/03 04:35:57;;;;;;;6.53;3.12;;;27.40;81.40;27.10;99412;;;;572134;246;24115;-76
2023/07/03 04:38:25;;;;;;;7.17;3.60;;;27.90;77.80;27.50;99416;;;;573965;246;23103;-76
2023/07/03 04:40:53;;;;;;;7.10;3.23;;;28.40;75.60;27.90;99411;;;;574005;246;23090;-76
2023/07/03 04:43:21;;;;;;;7.28;3.17;;;28.80;73.60;28.40;99429;;;;575515;246;24095;-76
2023/07/03 04:45:50;;;;;;;5.70;3.47;;;29.90;69.10;28.90;99420;;;;574032;246;24207;-76
2023/07/03 04:48:17;;;;;;;7.37;3.55;;;29.80;69.00;29.70;99417;;;;579178;243;23099;-77
2023/07/03 04:50:49;;;;;;;4.95;3.22;;;30.60;65.00;30.10;99414;;;;583486;246;23112;-76
2023/07/03 04:53:20;;;;;;;7.65;3.53;;;31.60;60.90;30.50;99418;;;;574126;246;24109;-77
2023/07/03 04:55:44;;;;;;;5.30;3.15;;;31.50;60.80;30.70;99412;;;;573949;246;23127;-77
2023/07/03 04:58:12;;;;;;;8.43;3.65;;;31.90;59.40;31.10;99415;;;;574398;246;23097;-76
2023/07/03 05:00:40;;;;;;;5.85;3.33;;;32.30;57.50;31.50;99414;;;;574107;246;24130;-76
2023/07/03 05:03:08;;;;;;;6.30;3.50;;;32.70;57.10;32.10;99423;;;;574237;246;23102;-78
2023/07/03 05:05:36;;;;;;;7.53;3.55;;;33.30;55.50;32.40;99416;;;;574477;246;23086;-75
2023/07/03 05:08:08;;;;;;;6.55;2.92;;;33.60;54.20;32.70;99427;;;;574505;246;24089;-76
2023/07/03 05:10:32;;;;;;;8.48;3.75;;;33.90;53.00;33.00;99420;;;;578646;246;23106;-77
2023/07/03 05:13:00;;;;;;;6.25;2.87;;;34.30;52.40;33.70;99431;;;;574634;246;23075;-78
2023/07/03 05:15:30;;;;;;;7.03;3.37;;;34.90;51.40;34.40;99433;;;;574405;246;23197;-81
2023/07/03 05:17:56;;;;;;;5.57;3.65;;;35.50;50.00;34.40;99426;;;;573717;246;23123;-77
2023/07/03 05:20:29;;;;;;;7.47;3.42;;;35.70;48.80;34.70;99433;;;;574085;246;23088;-76
2023/07/03 05:22:56;;;;;;;5.60;3.10;;;36.00;48.10;35.10;99436;;;;573766;246;23099;-79
2023/07/03 05:25:24;;;;;;;6.45;3.53;;;36.20;47.40;35.50;99439;;;;577845;246;23137;-77
2023/07/03 05:27:51;;;;;;;9.05;3.60;;;36.60;46.90;35.90;99434;;;;582322;246;23122;-77
2023/07/03 05:30:17;;;;;;;9.07;4.57;;;37.00;46.00;36.20;99444;;;;571863;246;23131;-76
2023/07/03 05:32:48;;;;;;;5.87;3.25;;;37.30;45.40;36.60;99441;;;;573916;246;23136;-80
2023/07/03 05:35:13;;;;;;;6.30;3.65;;;37.60;44.80;37.00;99447;;;;574307;243;23185;-76
2023/07/03 05:37:40;;;;;;;5.90;3.65;;;38.00;44.10;37.10;99445;;;;583170;246;23091;-76
2023/07/03 05:40:11;;;;;;;5.25;3.30;;;38.10;43.70;37.40;99449;;;;569343;246;46229;-76
2023/07/03 05:42:36;;;;;;;3.87;3.30;;;38.30;42.90;37.10;99448;;;;577687;246;23102;-76
2023/07/03 05:45:04;;;;;;;5.62;3.35;;;38.30;43.00;37.50;99447;;;;582615;246;23097;-77
2023/07/03 05:47:32;;;;;;;6.65;3.75;;;38.40;42.90;38.00;99439;;;;573926;246;23142;-78
2023/07/03 05:50:00;;;;;;;4.57;3.33;;;38.80;42.40;38.60;99444;;;;573832;246;24138;-76
2023/07/03 05:52:29;;;;;;;4.62;3.45;;;39.50;40.80;38.80;99448;;;;573817;246;23116;-78
2023/07/03 05:54:56;;;;;;;10.18;3.10;;;39.50;40.70;39.00;99453;;;;582312;245;23116;-78
2023/07/03 05:57:26;;;;;;;6.12;3.25;;;39.70;40.40;39.60;99457;;;;574686;246;23094;-79
2023/07/03 05:59:59;;;;;;;4.53;3.20;;;40.20;39.80;39.90;99454;;;;583336;245;23434;-81
2023/07/03 06:02:25;;;;;;;9.15;3.62;;;40.60;39.30;39.80;99449;;;;574723;246;23098;-78
2023/07/03 06:04:53;;;;;;;6.87;3.35;;;40.60;38.90;39.80;99463;;;;574614;246;23108;-77
2023/07/03 06:07:21;;;;;;;7.78;2.47;;;40.60;39.10;39.90;99459;;;;574519;246;24135;-77
2023/07/03 06:09:49;;;;;;;8.25;3.12;;;40.70;38.60;39.80;99463;;;;574385;246;23111;-80
2023/07/03 06:12:17;;;;;;;9.88;2.90;;;40.70;38.20;39.60;99465;;;;574380;246;23079;-77
2023/07/03 06:14:45;;;;;;;4.78;3.22;;;40.40;38.30;39.70;99471;;;;573962;246;23145;-80
2023/07/03 06:17:12;;;;;;;3.08;2.75;;;40.30;38.40;40.20;99470;;;;573780;246;23134;-79
2023/07/03 06:19:40;;;;;;;3.95;3.10;;;40.70;37.80;40.00;99462;;;;573616;246;23078;-77
2023/07/03 06:22:08;;;;;;;3.05;2.75;;;40.70;37.90;40.10;99464;;;;573790;246;23095;-77
2023/07/03 06:24:36;;;;;;;4.90;3.20;;;40.70;37.50;40.20;99462;;;;573852;246;23106;-78
2023/07/03 06:27:09;;;;;;;8.63;2.87;;;41.00;37.30;40.40;99464;;;;582940;246;24138;-77
2023/07/03 06:29:33;;;;;;;6.00;3.08;;;41.00;37.30;40.30;99468;;;;573696;246;24089;-80
2023/07/03 06:32:04;;;;;;;6.43;3.10;;;41.00;37.20;40.30;99470;;;;579135;246;23130;-82
2023/07/03 06:34:29;;;;;;;5.80;2.42;;;40.90;36.50;40.40;99462;;;;582584;246;23158;-80
2023/07/03 06:36:57;;;;;;;3.55;2.62;;;40.90;36.80;41.00;99461;;;;573976;246;23146;-78
2023/07/03 06:39:24;;;;;;;13.05;2.97;;;41.40;36.80;41.30;99461;;;;573745;246;23073;-79
2023/07/03 06:41:53;;;;;;;2.92;2.67;;;42.20;35.70;41.80;99468;;;;573790;246;23131;-81
2023/07/03 06:44:25;;;;;;;6.65;2.80;;;42.00;35.30;41.30;99461;;;;572021;246;23151;-79
2023/07/03 06:46:53;;;;;;;8.45;2.67;;;42.00;35.20;41.20;99471;;;;571862;246;23121;-81
2023/07/03 06:49:22;;;;;;;17.67;3.03;;;41.80;35.50;41.30;99465;;;;573682;246;23131;-83
2023/07/03 06:51:45;;;;;;;8.07;2.92;;;41.90;34.90;41.50;99461;;;;571885;246;23110;-80
2023/07/03 06:54:14;;;;;;;8.68;2.95;;;41.90;35.40;42.00;99470;;;;573786;246;23084;-80
2023/07/03 06:56:41;;;;;;;6.60;3.10;;;42.30;35.40;42.40;99452;;;;572717;246;23100;-83
2023/07/03 06:59:09;;;;;;;13.57;3.08;;;42.70;35.10;42.70;99460;;;;574169;243;23118;-85
2023/07/03 07:01:37;;;;;;;6.85;2.60;;;43.00;34.60;43.10;99460;;;;574014;246;23103;-84
2023/07/03 07:04:05;;;;;;;10.60;3.10;;;43.30;34.20;42.80;99466;;;;573814;246;24118;-79
2023/07/03 07:06:34;;;;;;;9.88;3.03;;;43.10;34.60;42.70;99460;;;;574823;246;23141;-83
2023/07/03 07:09:03;;;;;;;14.75;3.10;;;43.10;33.90;42.80;99477;;;;574959;246;25692;-79
2023/07/03 07:11:30;;;;;;;7.50;2.75;;;43.20;33.90;42.90;99469;;;;574368;246;23110;-81
2023/07/03 07:13:58;;;;;;;17.55;3.78;;;43.20;33.70;42.60;99479;;;;579912;245;23099;-78
2023/07/03 07:16:32;;;;;;;9.48;3.30;;;43.00;34.00;42.80;99473;;;;574500;246;23120;-79
2023/07/03 07:18:59;;;;;;;8.98;3.33;;;43.10;34.20;43.10;99481;;;;579023;246;23127;-83
2023/07/03 07:21:28;;;;;;;5.60;3.30;;;43.90;34.50;43.80;99479;;;;574933;246;23131;-81
2023/07/03 07:23:58;;;;;;;10.98;3.40;;;43.80;33.80;43.90;99474;;;;574045;246;25371;-84
2023/07/03 07:26:30;;;;;;;11.15;3.75;;;44.40;33.40;44.10;99476;;;;574417;246;23119;-84
2023/07/03 07:28:59;;;;;;;7.43;3.53;;;44.70;33.60;44.50;99477;;;;582850;246;23096;-82
2023/07/03 07:31:30;;;;;;;7.05;2.87;;;45.00;33.60;44.70;99468;;;;574005;246;23124;-83
2023/07/03 07:33:55;;;;;;;6.97;3.90;;;44.90;32.90;44.80;99453;;;;573712;246;23116;-77
2023/07/03 07:36:27;;;;;;;9.60;3.10;;;45.00;32.30;44.80;99459;;;;574396;246;23165;-79
2023/07/03 07:38:54;;;;;;;8.50;3.80;;;45.00;32.30;44.70;99459;;;;578143;246;23115;-78
2023/07/03 07:41:24;;;;;;;5.70;2.83;;;44.90;32.10;44.60;99463;;;;574116;246;23140;-79
2023/07/03 07:43:52;;;;;;;12.52;3.78;;;44.90;32.20;44.60;99459;;;;573400;246;23107;-84
2023/07/03 07:46:17;;;;;;;6.20;3.47;;;45.00;32.30;44.30;99462;;;;573963;243;23111;-81
2023/07/03 07:48:45;;;;;;;8.82;3.25;;;44.60;32.40;44.40;99464;;;;583596;245;23117;-78
2023/07/03 07:51:13;;;;;;;18.40;3.60;;;44.70;32.50;44.50;99476;;;;578794;246;23154;-79
2023/07/03 07:53:41;;;;;;;8.45;3.25;;;44.90;32.30;44.30;99479;;;;580124;245;23088;-77
2023/07/03 07:56:13;;;;;;;3.50;2.90;;;44.60;32.10;44.00;99468;;;;574185;246;23112;-79
2023/07/03 07:58:37;;;;;;;6.93;3.30;;;44.30;31.90;44.50;99469;;;;582074;245;23092;-77
2023/07/03 08:01:05;;;;;;;6.45;3.25;;;44.60;32.60;44.90;99478;;;;574104;246;23092;-79
2023/07/03 08:03:33;;;;;;;11.55;3.65;;;45.00;31.90;44.40;99474;;;;572967;246;23096;-79
2023/07/03 08:06:04;;;;;;;6.28;3.20;;;44.80;31.10;44.60;99462;;;;573021;246;23100;-78
2023/07/03 08:08:31;;;;;;;8.15;3.22;;;44.80;31.50;45.00;99472;;;;573837;246;23092;-80
2023/07/03 08:10:56;;;;;;;10.55;4.00;;;45.10;31.20;44.90;99478;;;;573549;246;23088;-80
2023/07/03 08:13:24;;;;;;;7.22;3.55;;;45.10;31.40;44.50;99477;;;;582576;243;24178;-77
2023/07/03 08:15:54;;;;;;;9.50;3.53;;;44.80;31.10;44.40;99483;;;;571809;246;23104;-83
2023/07/03 08:18:20;;;;;;;5.62;2.90;;;44.70;31.20;44.10;99489;;;;574679;246;23106;-82
2023/07/03 08:20:49;;;;;;;13.35;3.65;;;44.50;31.50;44.30;99483;;;;572695;246;23091;-79
2023/07/03 08:23:17;;;;;;;8.60;4.00;;;44.50;31.40;43.70;99475;;;;572797;246;23095;-79
2023/07/03 08:25:45;;;;;;;11.95;3.72;;;44.10;31.50;43.70;99484;;;;578979;246;23154;-78
2023/07/03 08:28:13;;;;;;;6.80;3.03;;;44.00;32.10;44.10;99499;;;;578322;246;23088;-80
2023/07/03 08:30:41;;;;;;;14.45;3.12;;;44.20;32.50;44.10;99468;;;;574731;246;23122;-78
2023/07/03 08:33:08;;;;;;;8.95;3.70;;;44.30;31.70;44.50;99482;;;;574639;246;23175;-78
2023/07/03 08:35:36;;;;;;;9.40;3.37;;;44.60;31.10;44.60;99471;;;;574440;243;23117;-81
2023/07/03 08:38:04;;;;;;;22.62;4.07;;;44.80;30.80;43.80;99486;;;;583372;246;23157;-80
2023/07/03 08:40:32;;;;;;;5.45;3.37;;;44.40;30.80;43.30;99473;;;;574713;246;23074;-79
2023/07/03 08:43:03;;;;;;;11.12;3.37;;;43.90;31.30;42.90;99481;;;;573165;246;23107;-77
2023/07/03 08:45:46;;;;;;;9.35;3.22;;;43.50;31.60;42.00;99489;;;;574314;246;23096;-77
2023/07/03 08:48:20;;;;;;;25.73;4.55;;;42.80;32.30;40.70;99494;;;;583628;245;23130;-81
2023/07/03 08:50:51;;;;;;;9.20;3.35;;;41.20;33.60;40.70;99495;;;;577812;246;24216;-78
2023/07/03 08:53:19;;;;;;;10.52;3.75;;;41.10;33.50;40.10;99508;;;;572086;246;23112;-79
2023/07/03 08:55:53;;;;;;;7.82;3.47;;;40.70;33.80;40.90;99505;;;;568474;246;35403;-78
2023/07/03 08:58:21;;;;;;;13.07;3.95;;;41.00;34.50;41.00;99506;;;;578818;246;23185;-77
2023/07/03 09:00:48;;;;;;;5.37;2.95;;;41.40;32.90;40.90;99504;;;;573323;246;23146;-76
2023/07/03 09:03:23;;;;;;;15.48;3.90;;;41.70;33.00;41.40;99516;;;;575389;246;23109;-79
2023/07/03 09:06:12;;;;;;;9.90;3.80;;;41.70;33.00;41.80;99520;;;;582309;246;23099;-78
2023/07/03 09:08:47;;;;;;;12.35;3.70;;;41.70;32.50;40.80;99517;;;;573304;246;23096;-77
2023/07/03 09:11:15;;;;;;;10.88;4.15;;;41.70;32.50;38.80;99526;;;;571516;246;23086;-78
2023/07/03 09:13:48;;;;;;;7.78;3.62;;;40.20;33.40;37.20;99526;;;;577294;246;23108;-79
2023/07/03 09:16:22;;;;;;;22.42;4.95;;;38.60;34.60;36.70;99517;;;;573578;246;23111;-77
2023/07/03 09:19:05;;;;;;;21.67;4.47;;;37.60;36.20;36.00;99519;;;;582736;246;23131;-78
2023/07/03 09:21:36;;;;;;;8.95;3.70;;;36.70;36.60;35.70;99520;;;;577973;246;23090;-77
2023/07/03 09:24:04;;;;;;;3.95;2.97;;;35.50;38.60;34.70;99524;;;;578100;246;24135;-78
2023/07/03 09:26:48;;;;;;;5.32;3.30;;;35.40;37.90;35.10;99520;;;;574201;246;24166;-79
2023/07/03 09:29:13;;;;;;;11.12;4.12;;;35.70;39.10;35.40;99524;;;;583268;244;23098;-78
2023/07/03 09:31:47;;;;;;;12.82;3.67;;;35.70;39.10;34.80;99521;;;;575040;246;23114;-79
2023/07/03 09:34:12;;;;;;;10.45;3.62;;;35.40;38.30;33.80;99528;;;;574361;246;24116;-82
2023/07/03 09:36:43;;;;;;;8.70;4.22;;;34.60;39.00;32.60;99513;;;;574361;246;23133;-81
2023/07/03 09:39:16;;;;;;;9.13;3.60;;;32.40;41.70;31.50;99528;;;;572447;246;23139;-77
2023/07/03 09:41:44;;;;;;;5.97;2.80;;;32.30;41.70;30.60;99529;;;;577900;243;23108;-79
2023/07/03 09:44:08;;;;;;;8.18;3.35;;;31.30;42.90;29.70;99529;;;;572388;246;23149;-80
2023/07/03 09:46:39;;;;;;;5.75;3.53;;;30.40;44.10;29.20;99529;;;;579473;245;23121;-78
2023/07/03 09:49:07;;;;;;;4.80;3.25;;;29.70;45.20;28.80;99527;;;;578612;246;23174;-78
2023/07/03 09:51:35;;;;;;;8.43;2.92;;;29.20;46.00;28.70;99532;;;;573801;246;23098;-78
2023/07/03 09:54:04;;;;;;;10.45;3.22;;;28.90;47.20;28.70;99535;;;;573948;246;23112;-79
2023/07/03 09:56:28;;;;;;;7.15;3.12;;;28.80;47.20;28.80;99526;;;;577835;246;24152;-79
2023/07/03 09:59:06;;;;;;;8.70;3.60;;;28.90;46.50;28.60;99528;;;;578159;246;23123;-80
2023/07/03 10:01:30;;;;;;;8.68;3.60;;;28.90;46.40;28.30;99525;;;;573820;246;25241;-79
2023/07/03 10:04:01;;;;;;;4.07;3.10;;;28.60;47.10;28.00;99525;;;;582869;243;24178;-79
2023/07/03 10:06:29;;;;;;;6.85;3.12;;;28.40;47.60;29.00;99523;;;;578062;246;23103;-78
2023/07/03 10:09:00;;;;;;;10.68;3.60;;;30.00;45.60;29.90;99529;;;;573724;246;23154;-77
2023/07/03 10:11:48;;;;;;;8.27;3.53;;;30.00;45.60;31.30;99530;;;;573881;246;23131;-76
2023/07/03 10:14:15;;;;;;;19.92;4.82;;;31.40;44.80;33.40;99529;;;;582500;246;23087;-77
2023/07/03 10:16:46;;;;;;;11.93;3.53;;;33.50;42.40;34.70;99540;;;;577805;246;23138;-78
2023/07/03 10:19:17;;;;;;;11.90;3.90;;;35.90;39.30;35.40;99529;;;;571964;246;24145;-76
2023/07/03 10:21:46;;;;;;;7.62;3.83;;;36.10;38.40;35.40;99541;;;;571366;246;24151;-76
2023/07/03 10:24:11;;;;;;;8.73;3.35;;;36.10;38.40;34.60;99537;;;;573450;246;23122;-77
2023/07/03 10:26:42;;;;;;;6.22;3.50;;;35.50;38.60;33.60;99533;;;;573744;246;23126;-78
2023/07/03 10:29:28;;;;;;;10.25;4.07;;;34.70;39.80;32.60;99537;;;;582567;244;23130;-78
2023/07/03 10:32:04;;;;;;;7.32;3.65;;;33.70;40.70;32.10;99531;;;;573743;246;24089;-78
2023/07/03 10:34:47;;;;;;;10.20;3.37;;;32.90;41.70;32.60;99540;;;;573728;246;23107;-78
2023/07/03 10:37:18;;;;;;;18.95;4.37;;;33.10;42.90;32.30;99529;;;;572719;246;23150;-75
2023/07/03 10:39:51;;;;;;;12.35;3.90;;;33.00;42.10;31.80;99541;;;;572774;244;23104;-77
2023/07/03 10:42:22;;;;;;;13.35;3.42;;;32.50;42.40;31.70;99534;;;;577811;246;24136;-77
2023/07/03 10:44:50;;;;;;;40.35;4.95;;;32.30;42.90;31.20;99545;;;;574982;246;23099;-76
2023/07/03 10:47:29;;;;;;;8.25;3.50;;;31.90;43.00;30.40;99537;;;;579178;246;23101;-77
2023/07/03 10:49:57;;;;;;;8.82;3.37;;;31.10;43.20;29.70;99536;;;;574549;246;23192;-76
2023/07/03 10:52:52;;;;;;;10.23;3.58;;;30.40;44.30;29.30;99544;;;;574496;246;24077;-78
2023/07/03 10:55:48;;;;;;;9.18;3.67;;;29.80;45.00;28.50;99532;;;;566269;247;23163;-78
2023/07/03 10:58:31;;;;;;;9.88;3.08;;;28.20;47.20;27.60;99541;;;;574370;246;23088;-76
2023/07/03 11:01:19;;;;;;;10.05;5.12;;;28.10;47.10;27.20;99554;;;;574393;246;23099;-76
2023/07/03 11:03:55;;;;;;;9.20;4.12;;;27.40;49.10;27.00;99542;;;;572885;246;24142;-77
2023/07/03 11:07:14;;;;;;;16.87;3.70;;;27.30;49.00;26.80;99537;;;;573756;246;24081;-78
2023/07/03 11:10:05;;;;;;;7.20;3.47;;;27.10;48.80;26.40;99538;;;;585379;245;23150;-77
2023/07/03 11:12:51;;;;;;;12.10;3.17;;;26.80;49.70;26.10;99537;;;;572172;246;24098;-77
2023/07/03 11:15:55;;;;;;;9.37;3.80;;;26.50;50.00;25.60;99538;;;;582607;246;24106;-79
2023/07/03 11:19:07;;;;;;;4.80;3.23;;;26.10;50.50;25.00;99539;;;;574024;246;23095;-78
2023/07/03 11:22:02;;;;;;;8.43;2.90;;;25.50;51.30;24.20;99550;;;;572326;246;24132;-76
2023/07/03 11:24:30;;;;;;;9.38;4.37;;;24.80;52.40;23.80;99554;;;;568903;246;35287;-77
2023/07/03 11:27:04;;;;;;;9.53;3.17;;;24.30;54.60;23.60;99555;;;;572926;246;24115;-77
2023/07/03 11:29:34;;;;;;;6.80;3.30;;;24.00;54.40;23.50;99556;;;;574013;246;24082;-76